Data for 07/26/2008

Time Sea-Level Adjusted Pressure Absolute Pressure Temperature Relative Humidity Dew Point   
(mb) (inHg) (mb) (inHg) (C) (F) (%) (C) (F)
00:05 1017 30.03 847 25.01 21.7 71 47 10.2 50.3
00:10 1017 30.03 847 25.01 21.5 70.8 48 10.2 50.3
00:15 1017 30.03 847 25.01 21.4 70.5 49 10.3 50.5
00:20 1017 30.03 847 25.01 21.3 70.4 49 10.3 50.5
00:25 1017 30.03 847 25.01 21.3 70.3 49 10.3 50.6
00:30 1017 30.03 847 25.01 21.2 70.2 50 10.4 50.7
00:35 1017 30.03 846 24.98 21.2 70.2 50 10.6 51.1
00:40 1017 30.03 846 24.98 21.2 70.1 51 10.7 51.2
00:45 1017 30.03 846 24.98 21.3 70.3 52 11 51.9
00:50 1017 30.03 846 24.98 21.2 70.2 52 11.1 52
00:55 1017 30.03 846 24.98 21.2 70.2 53 11.3 52.4
01:00 1017 30.03 846 24.98 21.1 70.1 54 11.5 52.6
01:05 1017 30.03 847 25.01 21 69.9 54 11.5 52.7
01:10 1017 30.03 847 25.01 20.9 69.7 55 11.7 53.1
01:15 1017 30.03 847 25.01 20.9 69.6 55 11.7 53.1
01:20 1017 30.03 847 25.01 20.8 69.4 56 11.8 53.3
01:25 1017 30.03 847 25.01 20.6 69.2 57 11.9 53.4
01:30 1017 30.03 847 25.01 20.6 69 57 11.8 53.3
01:35 1017 30.03 847 25.01 20.6 69 57 11.9 53.4
01:40 1018 30.06 847 25.01 20.5 68.8 58 12 53.6
01:45 1018 30.06 847 25.01 20.3 68.6 58 11.9 53.4
01:50 1018 30.06 847 25.01 20.2 68.4 58 11.9 53.4
01:55 1018 30.06 847 25.01 20.3 68.5 58 11.8 53.3
02:00 1018 30.06 847 25.01 20.2 68.4 58 11.9 53.4
02:05 1017 30.03 847 25.01 20.2 68.4 59 12 53.5
02:10 1017 30.03 847 25.01 20.1 68.1 59 11.9 53.4
02:15 1018 30.06 847 25.01 20.1 68.1 59 11.8 53.3
02:20 1018 30.06 847 25.01 20 68.1 59 11.9 53.4
02:25 1018 30.06 847 25.01 19.9 67.9 59 11.9 53.4
02:30 1018 30.06 847 25.01 19.9 67.8 59 11.8 53.2
02:35 1018 30.06 847 25.01 19.9 67.9 59 11.9 53.4
02:40 1018 30.06 847 25.01 19.8 67.7 59 11.8 53.3
02:45 1018 30.06 847 25.01 19.7 67.5 60 11.8 53.2
02:50 1018 30.06 847 25.01 19.7 67.4 60 11.8 53.3
02:55 1018 30.06 847 25.01 19.5 67.1 61 11.9 53.4
03:00 1018 30.06 847 25.01 19.5 67 61 11.8 53.3
03:05 1018 30.06 847 25.01 19.4 66.9 61 11.8 53.2
03:10 1018 30.06 847 25.01 19.4 66.8 62 11.9 53.4
03:15 1018 30.06 847 25.01 19.3 66.7 62 11.8 53.3
03:20 1018 30.06 847 25.01 19.2 66.6 62 11.8 53.2
03:25 1018 30.06 847 25.01 19.3 66.7 61 11.8 53.2
03:30 1018 30.06 847 25.01 19.3 66.7 61 11.8 53.2
03:35 1018 30.06 847 25.01 19.2 66.6 62 11.9 53.4
03:40 1018 30.06 847 25.01 19.1 66.5 62 11.8 53.3
03:45 1018 30.06 847 25.01 19.1 66.4 62 11.8 53.3
03:50 1018 30.06 847 25.01 19.2 66.5 62 11.8 53.3
03:55 1018 30.06 847 25.01 19.2 66.5 62 11.8 53.2
04:00 1018 30.06 847 25.01 19.2 66.5 62 11.7 53.1
04:05 1018 30.06 847 25.01 19.2 66.5 62 11.8 53.2
04:10 1018 30.06 847 25.01 19.1 66.4 62 11.7 53.1
04:15 1018 30.06 847 25.01 19.1 66.4 62 11.8 53.3
04:20 1018 30.06 847 25.01 19 66.1 63 11.8 53.2
04:25 1018 30.06 847 25.01 18.9 66 63 11.8 53.3
04:30 1018 30.06 847 25.01 18.8 65.9 63 11.8 53.3
04:35 1018 30.06 847 25.01 18.7 65.7 64 11.9 53.4
04:40 1018 30.06 847 25.01 18.7 65.7 64 11.8 53.3
04:45 1018 30.06 847 25.01 18.6 65.5 64 11.8 53.2
04:50 1018 30.06 847 25.01 18.7 65.6 64 11.8 53.2
04:55 1018 30.06 847 25.01 18.7 65.6 64 11.9 53.4
05:00 1018 30.06 847 25.01 18.6 65.5 64 11.8 53.3
05:05 1018 30.06 847 25.01 18.6 65.5 64 11.8 53.3
05:10 1018 30.06 847 25.01 18.5 65.2 65 11.9 53.4
05:15 1018 30.06 847 25.01 18.3 65 65 11.8 53.3
05:20 1018 30.06 847 25.01 18.3 64.9 66 11.8 53.3
05:25 1018 30.06 847 25.01 18.1 64.7 66 11.9 53.4
05:30 1018 30.06 847 25.01 18.1 64.6 67 11.9 53.4
05:35 1018 30.06 847 25.01 18.1 64.5 67 11.9 53.4
05:40 1018 30.06 847 25.01 17.8 64 68 11.9 53.4
05:45 1018 30.06 847 25.01 17.4 63.3 70 11.9 53.4
05:50 1018 30.06 847 25.01 17.1 62.8 71 11.8 53.3
05:55 1018 30.06 847 25.01 16.9 62.4 72 11.9 53.3
06:00 1018 30.06 847 25.01 16.5 61.7 69 10.9 51.5
06:05 1018 30.06 847 25.01 16.2 61.1 67 10.1 50.2
06:10 1018 30.06 847 25.01 15.9 60.6 69 10.3 50.5
06:15 1018 30.06 847 25.01 15.7 60.3 67 9.7 49.5
06:20 1018 30.06 847 25.01 15.8 60.4 69 10.1 50.2
06:25 1018 30.06 848 25.04 15.9 60.6 63 8.9 48.1
06:30 1018 30.06 848 25.04 15.6 60.1 66 9.4 49
06:35 1018 30.06 848 25.04 15.7 60.3 65 9.1 48.5
06:40 1018 30.06 848 25.04 15.7 60.3 62 8.5 47.3
06:45 1018 30.06 848 25.04 15.9 60.5 59 7.9 46.2
06:50 1018 30.06 848 25.04 15.7 60.3 62 8.5 47.2
06:55 1018 30.06 848 25.04 15 59.1 61 7.8 46
07:00 1018 30.06 848 25.04 14.6 58.2 60 6.9 44.5
07:05 1018 30.06 848 25.04 14.7 58.5 58 6.6 43.8
07:10 1018 30.06 848 25.04 15.2 59.3 57 6.7 44.1
07:15 1019 30.09 848 25.04 15.5 59.8 55 6.5 43.8
07:20 1019 30.09 848 25.04 16 60.7 55 7 44.5
07:25 1018 30.06 848 25.04 16.1 61 55 7.1 44.7
07:30 1018 30.06 848 25.04 16.3 61.3 54 7 44.7
07:35 1018 30.06 848 25.04 16.7 62.1 55 7.6 45.7
07:40 1018 30.06 848 25.04 17.1 62.8 59 9.1 48.5
07:45 1018 30.06 848 25.04 17.5 63.5 57 9 48.3
07:50 1018 30.06 848 25.04 17.5 63.6 58 9.3 48.7
07:55 1018 30.06 848 25.04 17.6 63.7 58 9.5 49.1
08:00 1018 30.06 848 25.04 17.9 64.3 58 9.8 49.6
08:05 1018 30.06 848 25.04 18.2 64.8 57 9.8 49.6
08:10 1018 30.06 848 25.04 18.6 65.5 57 9.9 49.8
08:15 1018 30.06 848 25.04 18.9 66 59 10.8 51.4
08:20 1018 30.06 848 25.04 19.3 66.7 59 11.2 52.1
08:25 1018 30.06 848 25.04 19.4 66.9 57 10.6 51.1
08:30 1018 30.06 848 25.04 19.7 67.4 58 11.3 52.3
08:35 1019 30.09 848 25.04 19.9 67.7 57 11.1 52.1
08:40 1019 30.09 848 25.04 20.3 68.6 57 11.7 53
08:45 1018 30.06 848 25.04 20.2 68.3 53 10.3 50.6
08:50 1018 30.06 848 25.04 20.1 68.3 50 9.5 49.1
08:55 1018 30.06 848 25.04 20.1 68.3 53 10.5 50.9
09:00 1018 30.06 848 25.04 20.6 69.1 51 10.3 50.6
09:05 1018 30.06 848 25.04 20.6 69.1 50 10 50.1
09:10 1018 30.06 848 25.04 20.9 69.6 47 9.4 49
09:15 1018 30.06 848 25.04 21 69.8 48 9.6 49.3
09:20 1018 30.06 848 25.04 21.5 70.8 44 9.1 48.3
09:25 1018 30.06 848 25.04 22 71.6 45 9.7 49.4
09:30 1018 30.06 848 25.04 22.4 72.3 43 9.5 49.1
09:35 1018 30.06 847 25.01 22.6 72.6 44 10 50
09:40 1018 30.06 847 25.01 22.6 72.8 43 9.5 49.1
09:45 1018 30.06 847 25.01 22.7 72.8 42 9.4 49
09:50 1018 30.06 847 25.01 23.2 73.7 42 9.7 49.4
09:55 1018 30.06 847 25.01 23.1 73.5 42 9.7 49.4
10:00 1018 30.06 847 25.01 24.2 75.5 42 10.5 50.8
10:05 1018 30.06 847 25.01 23.2 73.8 46 11.2 52.1
10:10 1018 30.06 847 25.01 23.7 74.7 42 10.2 50.3
10:15 1018 30.06 847 25.01 24.3 75.7 45 11.8 53.2
10:20 1018 30.06 847 25.01 23.7 74.6 43 10.6 51.1
10:25 1018 30.06 847 25.01 24.4 75.9 44 11.5 52.7
10:30 1018 30.06 847 25.01 23.7 74.7 47 12 53.7
10:35 1018 30.06 847 25.01 23.6 74.5 46 11.5 52.6
10:40 1018 30.06 847 25.01 23.8 74.9 46 11.8 53.3
10:45 1018 30.06 847 25.01 24.1 75.3 45 11.5 52.6
10:50 1018 30.06 847 25.01 24.8 76.6 42 11.2 52.2
10:55 1018 30.06 847 25.01 25.2 77.4 42 11.7 53
11:00 1018 30.06 847 25.01 25.2 77.4 43 11.8 53.3
11:05 1018 30.06 847 25.01 24.8 76.6 45 12.1 53.7
11:10 1018 30.06 847 25.01 24.2 75.6 44 11.5 52.7
11:15 1018 30.06 847 25.01 24.8 76.7 43 11.8 53.2
11:20 1018 30.06 847 25.01 25.3 77.6 40 11 51.8
11:25 1018 30.06 847 25.01 25.7 78.2 41 11.8 53.3
11:30 1018 30.06 847 25.01 26.2 79.2 39 11.4 52.5
11:35 1018 30.06 847 25.01 26.5 79.8 40 12.2 53.9
11:40 1018 30.06 847 25.01 26.4 79.5 39 11.4 52.5
11:45 1018 30.06 847 25.01 25.7 78.3 43 12.4 54.3
11:50 1018 30.06 847 25.01 25.8 78.4 41 11.6 52.9
11:55 1018 30.06 847 25.01 26.7 80 37 11.2 52.2
12:00 1018 30.06 847 25.01 26.8 80.3 39 12.1 53.7
12:05 1018 30.06 847 25.01 26.4 79.4 37 10.6 51.1
12:10 1018 30.06 847 25.01 27.4 81.2 35 10.9 51.6
12:15 1018 30.06 847 25.01 27.6 81.8 33 10.4 50.6
12:20 1018 30.06 847 25.01 28 82.4 33 10.7 51.3
12:25 1018 30.06 847 25.01 28 82.4 34 11.2 52.1
12:30 1018 30.06 847 25.01 27.5 81.5 36 11.2 52.1
12:35 1018 30.06 847 25.01 27.3 81.1 35 10.9 51.6
12:40 1018 30.06 847 25.01 27.5 81.4 35 10.8 51.5
12:45 1017 30.03 847 25.01 27.4 81.4 33 10.1 50.2
12:50 1017 30.03 847 25.01 27.3 81.2 32 9.5 49
12:55 1017 30.03 847 25.01 26.9 80.3 31 8.8 47.8
13:00 1017 30.03 847 25.01 27.3 81.1 30 8.2 46.8
13:05 1017 30.03 847 25.01 27.4 81.2 32 9.5 49.1
13:10 1017 30.03 846 24.98 27.7 81.8 29 8.5 47.4
13:15 1017 30.03 846 24.98 29 84.2 27 8.6 47.5
13:20 1017 30.03 846 24.98 29.1 84.4 27 8.6 47.5
13:25 1017 30.03 846 24.98 29.9 85.7 25 8.2 46.7
13:30 1017 30.03 846 24.98 30.4 86.7 28 10.1 50.3
13:35 1017 30.03 846 24.98 29.8 85.6 27 9.1 48.4
13:40 1017 30.03 846 24.98 30.1 86.1 25 8.5 47.3
13:45 1017 30.03 846 24.98 29.7 85.4 26 8.5 47.4
13:50 1017 30.03 846 24.98 29.6 85.3 24 7.4 45.4
13:55 1017 30.03 846 24.98 30.1 86.1 24 7.8 46
14:00 1017 30.03 846 24.98 30.4 86.7 24 7.8 46
14:05 1017 30.03 846 24.98 30.4 86.7 25 8.3 46.9
14:10 1017 30.03 846 24.98 31.1 87.9 24 8.3 47
14:15 1017 30.03 846 24.98 31.3 88.4 24 8.5 47.3
14:20 1016 30 846 24.98 31.2 88.2 24 8.4 47.2
14:25 1016 30 846 24.98 31 87.7 21 6.8 44.2
14:30 1016 30 846 24.98 30.6 87.2 25 8.5 47.3
14:35 1016 30 845 24.95 29.9 85.8 20 4.5 40.2
14:40 1016 30 845 24.95 30.3 86.6 19 4.5 40.1
14:45 1016 30 845 24.95 30.7 87.2 18 4.4 39.8
14:50 1016 30 845 24.95 31.6 88.8 18 5 40.9
14:55 1016 30 845 24.95 31.9 89.5 19 5.7 42.3
15:00 1016 30 845 24.95 32.1 89.8 19 6 42.7
15:05 1016 30 845 24.95 32.1 89.8 18 5.2 41.4
15:10 1016 30 845 24.95 32.5 90.5 16 3.9 39.1
15:15 1016 30 845 24.95 32.7 90.9 16 4.4 39.9
15:20 1016 30 845 24.95 32.7 90.9 17 4.9 40.8
15:25 1016 30 845 24.95 33.2 91.7 16 4.1 39.3
15:30 1016 30 845 24.95 33.4 92.1 16 4.7 40.4
15:35 1016 30 845 24.95 32.9 91.2 17 4.7 40.5
15:40 1015 29.97 845 24.95 32.6 90.6 16 4.3 39.7
15:45 1015 29.97 845 24.95 32.9 91.3 16 4.6 40.3
15:50 1015 29.97 845 24.95 32.2 90 18 5.3 41.5
15:55 1015 29.97 844 24.92 32.7 90.8 16 3.7 38.6
16:00 1015 29.97 844 24.92 33 91.3 15 3.5 38.4
16:05 1015 29.97 844 24.92 32.3 90.2 16 3.4 38.1
16:10 1015 29.97 844 24.92 32.8 91.1 15 3.6 38.4
16:15 1015 29.97 844 24.92 33 91.4 15 3.8 38.8
16:20 1015 29.97 844 24.92 32.3 90.2 15 3 37.4
16:25 1015 29.97 844 24.92 32.1 89.8 15 2.6 36.6
16:30 1015 29.97 844 24.92 33.1 91.5 13 1.8 35.3
16:35 1015 29.97 844 24.92 32.5 90.4 14 2.2 35.9
16:40 1015 29.97 844 24.92 31.8 89.3 15 2 35.6
16:45 1015 29.97 844 24.92 32.6 90.6 14 1.5 34.8
16:50 1015 29.97 844 24.92 32.6 90.8 14 2.4 36.3
16:55 1015 29.97 844 24.92 32.7 90.8 14 1.9 35.5
17:00 1015 29.97 844 24.92 33.2 91.7 13 1.6 34.9
17:05 1015 29.97 844 24.92 33.7 92.6 13 1.5 34.6
17:10 1015 29.97 844 24.92 33.3 91.9 13 1.5 34.7
17:15 1014 29.94 844 24.92 33.2 91.7 13 1.5 34.7
17:20 1014 29.94 844 24.92 32.6 90.6 13 1 33.9
17:25 1014 29.94 844 24.92 32.1 89.7 13 0.2 32.4
17:30 1014 29.94 844 24.92 32.7 90.8 12 0.4 32.8
17:35 1014 29.94 844 24.92 33.3 92 13 1.6 34.9
17:40 1014 29.94 844 24.92 34.2 93.6 12 0.9 33.6
17:45 1014 29.94 843 24.89 34 93.2 12 1.2 34.2
17:50 1014 29.94 843 24.89 33.3 92 12 0.6 33.1
17:55 1014 29.94 843 24.89 32.7 90.8 13 1.1 34
18:00 1014 29.94 843 24.89 32.5 90.6 13 0.9 33.7
18:05 1014 29.94 843 24.89 32.8 91.1 12 0.1 32.1
18:10 1014 29.94 843 24.89 33 91.4 12 0.3 32.6
18:15 1014 29.94 843 24.89 32.6 90.7 13 1.6 34.8
18:20 1014 29.94 843 24.89 32 89.6 13 0.8 33.4
18:25 1014 29.94 843 24.89 31.8 89.2 16 2.8 37.1
18:30 1014 29.94 843 24.89 31.5 88.7 16 3 37.5
18:35 1014 29.94 843 24.89 31.7 89 13 0.1 32.1
18:40 1014 29.94 843 24.89 32.2 89.9 13 1 33.8
18:45 1014 29.94 843 24.89 32.3 90.1 13 1.1 34.1
18:50 1014 29.94 843 24.89 32.1 89.9 13 0.9 33.6
18:55 1014 29.94 843 24.89 31.9 89.4 14 1.3 34.3
19:00 1014 29.94 843 24.89 31.7 89.1 14 1.3 34.4
19:05 1013 29.91 843 24.89 31.7 89.1 14 1.2 34.2
19:10 1013 29.91 843 24.89 31.7 89.1 14 1.4 34.5
19:15 1013 29.91 843 24.89 31.4 88.6 15 2.2 36
19:20 1013 29.91 843 24.89 31.2 88.2 15 2.3 36.1
19:25 1013 29.91 843 24.89 30.9 87.6 15 2 35.5
19:30 1013 29.91 843 24.89 30.6 87.1 17 3.3 37.9
19:35 1013 29.91 842 24.86 30.5 86.9 17 2.8 37.1
19:40 1013 29.91 842 24.86 30.4 86.7 17 2.6 36.6
19:45 1013 29.91 842 24.86 30.3 86.6 18 3.4 38.1
19:50 1013 29.91 842 24.86 30.3 86.6 18 3.4 38.2
19:55 1013 29.91 842 24.86 30.2 86.3 19 4.3 39.7
20:00 1013 29.91 842 24.86 30 86 20 5.1 41.3
20:05 1013 29.91 842 24.86 29.8 85.7 20 5 41
20:10 1013 29.91 842 24.86 29.7 85.5 21 5.7 42.3
20:15 1013 29.91 842 24.86 29.4 84.9 21 5.3 41.5
20:20 1013 29.91 842 24.86 29.1 84.4 21 4.9 40.9
20:25 1013 29.91 842 24.86 28.9 84 24 6.4 43.5
20:30 1013 29.91 842 24.86 28.5 83.2 24 6.5 43.6
20:35 1013 29.91 842 24.86 28.2 82.8 25 6.8 44.2
20:40 1013 29.91 842 24.86 27.8 82 27 7.5 45.6
20:45 1013 29.91 842 24.86 27.4 81.3 27 6.9 44.3
20:50 1013 29.91 842 24.86 27.5 81.4 25 5.9 42.7
20:55 1013 29.91 842 24.86 27.4 81.4 29 8 46.5
21:00 1013 29.91 842 24.86 26.9 80.3 31 8.4 47
21:05 1013 29.91 842 24.86 25.6 78.1 34 8.7 47.6
21:10 1013 29.91 842 24.86 25.1 77.1 30 6.7 44
21:15 1013 29.91 842 24.86 25.3 77.5 29 6.1 42.9
21:20 1013 29.91 842 24.86 25 77.1 27 5.2 41.4
21:25 1013 29.91 842 24.86 24.8 76.6 27 4.6 40.3
21:30 1013 29.91 842 24.86 24.7 76.4 26 4.2 39.6
21:35 1013 29.91 842 24.86 24.6 76.3 26 4.2 39.5
21:40 1013 29.91 842 24.86 24.6 76.4 25 3.6 38.5
21:45 1013 29.91 842 24.86 24.9 76.8 25 3.6 38.6
21:50 1013 29.91 842 24.86 24.7 76.5 25 3.4 38
21:55 1013 29.91 842 24.86 24.2 75.5 29 5.3 41.6
22:00 1013 29.91 842 24.86 23.3 74 29 4.4 40
22:05 1013 29.91 842 24.86 23.5 74.2 31 5.4 41.7
22:10 1013 29.91 842 24.86 24 75.1 25 2.7 36.9
22:15 1013 29.91 842 24.86 24.4 75.9 29 5.4 41.8
22:20 1013 29.91 842 24.86 24 75.2 28 4.4 39.8
22:25 1013 29.91 842 24.86 23.4 74.1 31 5.7 42.2
22:30 1013 29.91 842 24.86 22.6 72.8 33 5.6 42.1
22:35 1013 29.91 842 24.86 22.1 71.8 33 5.3 41.5
22:40 1013 29.91 842 24.86 21.6 70.9 34 5.3 41.5
22:45 1013 29.91 843 24.89 21.3 70.3 35 5.3 41.5
22:50 1013 29.91 842 24.86 21.2 70.1 32 3.9 39
22:55 1013 29.91 843 24.89 22.3 72.2 28 3.2 37.7
23:00 1013 29.91 843 24.89 22.4 72.4 34 6 42.7
23:05 1013 29.91 843 24.89 21.7 71 30 3.3 38
23:10 1013 29.91 843 24.89 21.9 71.5 31 4.3 39.7
23:15 1014 29.94 843 24.89 21.3 70.3 36 5.7 42.3
23:20 1014 29.94 843 24.89 20.3 68.5 40 6.4 43.4
23:25 1014 29.94 843 24.89 19.8 67.6 40 5.9 42.6
23:30 1014 29.94 843 24.89 20.1 68.2 36 4.9 40.8
23:35 1014 29.94 843 24.89 21 69.7 33 4.1 39.3
23:40 1014 29.94 843 24.89 21.4 70.5 33 4.7 40.4
23:45 1014 29.94 843 24.89 21.4 70.6 33 4.5 40.1
23:50 1014 29.94 843 24.89 21.3 70.3 33 4.7 40.5
23:55 1014 29.94 843 24.89 21 69.8 34 4.6 40.3
24:00 1014 29.94 844 24.92 21 69.8 33 4.3 39.7